Главная страница
METAR-TAF:

METAR-TAF

Аэропорты :

Эрбиль, Ирак

широта: 36-14-15N, долгота: 43-57-47E, высота над уровнем моря: 415 м

Текущие метеонаблюдения

Эта сводка был подготовлена 2 часа и 51 минут назад, в 20:00 UTC
Ветер 10 Узел от западный
Температура 22°C
Влажность 33%
Давление 1017 hPa
Видимость: 9000 м

METAR: ORER 182000Z 28010KT 9000 NSC 22/05 Q1017 NOSIG

Время: 01:51 (22:51 UTC)

Прогноз

Эта сводка был подготовлена 11 часа и 51 минут назад, в 11:00 UTC
Прогноз действительный с 18-го 12 UTC до 19-го 12 UTC
Ветер 6 Узел от северо-западный
Видимость: 8000 м

TAF: ORER 181100Z 1812/1912 32006KT 8000 NSC

Метеонаблюдения и прогнозы для более 4000 аэропортов (сводки METAR и TAF).

Имеющиеся станции представлены на карте желтыми и красными точками.

Чтобы увидеть название станции, наведите на нее мышь.

Затем щелкните, чтобы увидеть метеонаблюдения и метеопрогнозы.

Управление картой: чтобы увеличить масштаб, щелкните зеленые кнопки с черным крестиком; чтобы уменьшить масштаб, щелкните зеленую кнопку с тире; для просмотра соседних карт щелкайте зеленые стрелки.


METAR-TAF: